sensor_id;sensor_type;location;lat;lon;timestamp;pressure;altitude;pressure_sealevel;temperature;humidity
40982;BME280;26708;50.304;19.028;2023-02-02T00:19:55;97489.41;;;3.35;67.93
40982;BME280;26708;50.304;19.028;2023-02-02T00:49:44;97524.66;;;3.25;68.00
40982;BME280;26708;50.304;19.028;2023-02-02T00:52:29;97278.72;;;1.71;67.95
40982;BME280;26708;50.304;19.028;2023-02-02T00:55:30;97225.88;;;1.32;68.13
40982;BME280;26708;50.304;19.028;2023-02-02T00:58:10;97499.53;;;3.09;68.19
40982;BME280;26708;50.304;19.028;2023-02-02T01:00:44;97340.16;;;2.11;68.23
40982;BME280;26708;50.304;19.028;2023-02-02T01:05:42;97443.31;;;2.84;68.22
40982;BME280;26708;50.304;19.028;2023-02-02T01:07:52;97396.56;;;2.54;68.19
40982;BME280;26708;50.304;19.028;2023-02-02T01:09:59;97537.59;;;3.30;68.40
40982;BME280;26708;50.304;19.028;2023-02-02T01:12:13;97307.44;;;2.06;68.21
40982;BME280;26708;50.304;19.028;2023-02-02T01:14:34;97366.09;;;2.20;68.38
40982;BME280;26708;50.304;19.028;2023-02-02T01:16:39;97261.44;;;1.61;68.36
40982;BME280;26708;50.304;19.028;2023-02-02T01:18:49;97468.28;;;2.82;68.55
40982;BME280;26708;50.304;19.028;2023-02-02T01:21:05;97220.78;;;1.36;68.50
40982;BME280;26708;50.304;19.028;2023-02-02T01:23:13;97251.06;;;1.57;68.59
40982;BME280;26708;50.304;19.028;2023-02-02T01:25:21;97359.28;;;2.30;68.72
40982;BME280;26708;50.304;19.028;2023-02-02T01:27:28;97389.56;;;2.47;68.71
40982;BME280;26708;50.304;19.028;2023-02-02T01:29:34;97310.72;;;1.93;68.58
40982;BME280;26708;50.304;19.028;2023-02-02T01:31:41;97344.63;;;2.27;68.65
40982;BME280;26708;50.304;19.028;2023-02-02T01:33:47;97466.69;;;3.01;68.46
40982;BME280;26708;50.304;19.028;2023-02-02T01:35:54;97355.81;;;2.26;68.63
40982;BME280;26708;50.304;19.028;2023-02-02T01:38:03;97502.97;;;3.10;68.65
40982;BME280;26708;50.304;19.028;2023-02-02T01:40:11;97454.50;;;2.83;68.75
40982;BME280;26708;50.304;19.028;2023-02-02T01:42:21;97355.06;;;2.36;68.44
40982;BME280;26708;50.304;19.028;2023-02-02T01:47:19;97478.84;;;3.06;68.57
40982;BME280;26708;50.304;19.028;2023-02-02T01:49:29;97323.91;;;2.18;68.55
40982;BME280;26708;50.304;19.028;2023-02-02T01:51:39;97451.94;;;2.83;68.83
40982;BME280;26708;50.304;19.028;2023-02-02T01:53:56;97538.50;;;3.36;68.66
40982;BME280;26708;50.304;19.028;2023-02-02T01:56:09;97380.97;;;2.48;68.87
40982;BME280;26708;50.304;19.028;2023-02-02T01:58:23;97431.22;;;2.80;68.78
40982;BME280;26708;50.304;19.028;2023-02-02T02:00:35;97378.28;;;2.36;68.79
40982;BME280;26708;50.304;19.028;2023-02-02T02:02:53;97418.09;;;2.58;68.71
40982;BME280;26708;50.304;19.028;2023-02-02T02:05:02;97364.53;;;2.37;68.63
40982;BME280;26708;50.304;19.028;2023-02-02T02:07:10;97560.19;;;3.49;68.73
40982;BME280;26708;50.304;19.028;2023-02-02T02:09:20;97541.25;;;3.50;68.72
40982;BME280;26708;50.304;19.028;2023-02-02T02:11:26;97498.72;;;3.13;68.54
40982;BME280;26708;50.304;19.028;2023-02-02T02:13:36;97356.78;;;2.37;68.68
40982;BME280;26708;50.304;19.028;2023-02-02T02:16:05;97412.03;;;2.54;68.35
40982;BME280;26708;50.304;19.028;2023-02-02T02:18:41;97252.97;;;1.73;68.38
40982;BME280;26708;50.304;19.028;2023-02-02T02:21:20;97352.44;;;2.33;68.52
40982;BME280;26708;50.304;19.028;2023-02-02T02:27:20;97511.66;;;3.16;68.41
40982;BME280;26708;50.304;19.028;2023-02-02T02:36:02;97545.41;;;3.33;68.27
40982;BME280;26708;50.304;19.028;2023-02-02T02:38:25;97442.25;;;2.63;68.13
40982;BME280;26708;50.304;19.028;2023-02-02T02:40:43;97612.03;;;3.62;68.09
40982;BME280;26708;50.304;19.028;2023-02-02T02:42:57;97514.28;;;3.22;68.08
40982;BME280;26708;50.304;19.028;2023-02-02T02:45:09;97327.31;;;2.16;67.65
40982;BME280;26708;50.304;19.028;2023-02-02T02:47:19;97284.09;;;1.92;67.83
40982;BME280;26708;50.304;19.028;2023-02-02T02:49:26;97294.47;;;1.97;67.52
40982;BME280;26708;50.304;19.028;2023-02-02T02:51:57;97551.56;;;3.51;67.75
40982;BME280;26708;50.304;19.028;2023-02-02T02:54:33;97435.56;;;2.86;67.72
40982;BME280;26708;50.304;19.028;2023-02-02T02:57:06;97451.09;;;2.89;67.77
40982;BME280;26708;50.304;19.028;2023-02-02T02:59:36;97270.31;;;1.89;67.60
40982;BME280;26708;50.304;19.028;2023-02-02T03:02:10;97367.84;;;2.27;67.70
40982;BME280;26708;50.304;19.028;2023-02-02T03:04:34;97548.16;;;3.52;67.67
40982;BME280;26708;50.304;19.028;2023-02-02T03:06:53;97407.88;;;2.70;67.60
40982;BME280;26708;50.304;19.028;2023-02-02T03:09:07;97516.91;;;3.27;67.54
40982;BME280;26708;50.304;19.028;2023-02-02T03:11:16;97426.00;;;2.76;67.41
40982;BME280;26708;50.304;19.028;2023-02-02T03:13:26;97595.78;;;3.75;67.54
40982;BME280;26708;50.304;19.028;2023-02-02T03:15:35;97296.13;;;1.90;67.08
40982;BME280;26708;50.304;19.028;2023-02-02T03:17:41;97345.44;;;2.20;67.29
40982;BME280;26708;50.304;19.028;2023-02-02T03:19:46;97513.44;;;3.23;67.28
40982;BME280;26708;50.304;19.028;2023-02-02T03:21:56;97430.28;;;2.72;67.25
40982;BME280;26708;50.304;19.028;2023-02-02T03:24:06;97467.53;;;2.94;67.27
40982;BME280;26708;50.304;19.028;2023-02-02T03:26:11;97424.28;;;2.75;67.37
40982;BME280;26708;50.304;19.028;2023-02-02T03:28:18;97493.56;;;3.16;67.08
40982;BME280;26708;50.304;19.028;2023-02-02T03:30:26;97482.97;;;2.88;67.05
40982;BME280;26708;50.304;19.028;2023-02-02T03:32:32;97334.13;;;2.06;66.95
40982;BME280;26708;50.304;19.028;2023-02-02T03:37:20;97360.19;;;2.35;67.05
40982;BME280;26708;50.304;19.028;2023-02-02T03:39:25;97382.63;;;2.43;67.05
40982;BME280;26708;50.304;19.028;2023-02-02T03:41:33;97449.38;;;2.88;67.03
40982;BME280;26708;50.304;19.028;2023-02-02T03:43:38;97483.94;;;3.00;67.09
40982;BME280;26708;50.304;19.028;2023-02-02T03:45:43;97574.97;;;3.63;66.98
40982;BME280;26708;50.304;19.028;2023-02-02T03:47:49;97551.63;;;3.54;66.95
40982;BME280;26708;50.304;19.028;2023-02-02T03:49:54;97434.75;;;2.87;66.89
40982;BME280;26708;50.304;19.028;2023-02-02T03:51:59;97602.69;;;3.82;67.10
40982;BME280;26708;50.304;19.028;2023-02-02T03:54:09;97560.38;;;3.74;66.65
40982;BME280;26708;50.304;19.028;2023-02-02T03:56:15;97499.75;;;3.35;66.78
40982;BME280;26708;50.304;19.028;2023-02-02T03:58:20;97372.59;;;2.67;66.60
40982;BME280;26708;50.304;19.028;2023-02-02T04:00:26;97495.41;;;3.29;66.70
40982;BME280;26708;50.304;19.028;2023-02-02T04:02:30;97620.84;;;3.85;66.69
40982;BME280;26708;50.304;19.028;2023-02-02T04:04:35;97548.00;;;3.36;66.94
40982;BME280;26708;50.304;19.028;2023-02-02T04:06:41;97558.53;;;3.57;66.96
40982;BME280;26708;50.304;19.028;2023-02-02T04:08:46;97586.31;;;3.80;67.01
40982;BME280;26708;50.304;19.028;2023-02-02T04:10:53;97356.88;;;2.46;66.96
40982;BME280;26708;50.304;19.028;2023-02-02T04:12:59;97425.25;;;2.84;66.88
40982;BME280;26708;50.304;19.028;2023-02-02T04:15:06;97448.63;;;3.02;66.98
40982;BME280;26708;50.304;19.028;2023-02-02T04:17:11;97379.41;;;2.61;66.90
40982;BME280;26708;50.304;19.028;2023-02-02T04:19:19;97578.59;;;3.83;67.10
40982;BME280;26708;50.304;19.028;2023-02-02T04:21:24;97503.97;;;3.25;67.04
40982;BME280;26708;50.304;19.028;2023-02-02T04:23:29;97458.13;;;3.03;66.85
40982;BME280;26708;50.304;19.028;2023-02-02T04:25:36;97382.94;;;2.73;66.62
40982;BME280;26708;50.304;19.028;2023-02-02T04:27:54;97524.88;;;3.52;66.59
40982;BME280;26708;50.304;19.028;2023-02-02T04:29:59;97465.09;;;3.12;66.80
40982;BME280;26708;50.304;19.028;2023-02-02T04:32:05;97422.81;;;3.05;66.70
40982;BME280;26708;50.304;19.028;2023-02-02T04:36:32;97435.72;;;3.05;66.28
40982;BME280;26708;50.304;19.028;2023-02-02T04:38:38;97526.63;;;3.53;66.28
40982;BME280;26708;50.304;19.028;2023-02-02T04:40:45;97415.00;;;2.95;66.49
40982;BME280;26708;50.304;19.028;2023-02-02T04:45:30;97279.94;;;2.06;66.20
40982;BME280;26708;50.304;19.028;2023-02-02T04:47:51;97297.22;;;2.16;66.09
40982;BME280;26708;50.304;19.028;2023-02-02T04:50:39;97398.41;;;2.69;65.73
40982;BME280;26708;50.304;19.028;2023-02-02T05:09:28;97577.66;;;3.74;65.54
40982;BME280;26708;50.304;19.028;2023-02-02T05:11:47;97514.38;;;3.31;65.61
40982;BME280;26708;50.304;19.028;2023-02-02T05:14:20;97581.97;;;3.76;65.22
40982;BME280;26708;50.304;19.028;2023-02-02T05:20:13;97470.06;;;2.91;64.77
40982;BME280;26708;50.304;19.028;2023-02-02T05:25:33;97343.94;;;2.45;64.46
40982;BME280;26708;50.304;19.028;2023-02-02T05:27:42;97547.44;;;3.68;64.54
40982;BME280;26708;50.304;19.028;2023-02-02T05:29:47;97513.72;;;3.61;64.27
40982;BME280;26708;50.304;19.028;2023-02-02T05:31:52;97477.22;;;3.22;64.30
40982;BME280;26708;50.304;19.028;2023-02-02T05:33:58;97498.97;;;3.45;64.36
40982;BME280;26708;50.304;19.028;2023-02-02T05:36:04;97585.47;;;3.86;63.97
40982;BME280;26708;50.304;19.028;2023-02-02T05:38:12;97550.84;;;3.67;63.89
40982;BME280;26708;50.304;19.028;2023-02-02T05:40:18;97311.09;;;2.29;64.21
40982;BME280;26708;50.304;19.028;2023-02-02T05:42:28;97271.38;;;2.09;63.92
40982;BME280;26708;50.304;19.028;2023-02-02T05:44:34;97381.25;;;2.74;63.87
40982;BME280;26708;50.304;19.028;2023-02-02T05:46:52;97580.34;;;3.90;63.72
40982;BME280;26708;50.304;19.028;2023-02-02T05:51:28;97505.06;;;3.54;63.59
40982;BME280;26708;50.304;19.028;2023-02-02T05:53:58;97573.47;;;3.91;63.29
40982;BME280;26708;50.304;19.028;2023-02-02T13:20:57;97881.00;;;5.26;57.41
40982;BME280;26708;50.304;19.028;2023-02-02T13:26:23;97838.56;;;5.12;57.45
40982;BME280;26708;50.304;19.028;2023-02-02T15:54:17;97929.38;;;3.68;53.90
40982;BME280;26708;50.304;19.028;2023-02-02T15:59:26;97865.88;;;3.28;54.21
40982;BME280;26708;50.304;19.028;2023-02-02T16:02:41;98038.31;;;4.48;53.96
40982;BME280;26708;50.304;19.028;2023-02-02T16:08:24;97962.31;;;3.79;54.22
40982;BME280;26708;50.304;19.028;2023-02-02T16:10:46;98104.19;;;4.68;53.03
40982;BME280;26708;50.304;19.028;2023-02-02T16:24:58;98163.78;;;4.68;51.80
40982;BME280;26708;50.304;19.028;2023-02-02T16:33:32;98195.59;;;4.58;52.20
40982;BME280;26708;50.304;19.028;2023-02-02T16:35:39;98037.19;;;3.70;52.09
40982;BME280;26708;50.304;19.028;2023-02-02T16:37:44;98191.28;;;4.57;52.08
40982;BME280;26708;50.304;19.028;2023-02-02T16:39:53;98064.03;;;3.75;51.90
40982;BME280;26708;50.304;19.028;2023-02-02T16:42:08;98105.81;;;4.00;52.28
40982;BME280;26708;50.304;19.028;2023-02-02T16:44:30;98234.78;;;4.79;51.82
40982;BME280;26708;50.304;19.028;2023-02-02T16:46:44;98198.94;;;4.49;51.14
40982;BME280;26708;50.304;19.028;2023-02-02T16:48:59;98112.59;;;3.92;51.34
40982;BME280;26708;50.304;19.028;2023-02-02T16:51:25;98260.50;;;4.67;51.08
40982;BME280;26708;50.304;19.028;2023-02-02T16:53:33;98146.25;;;3.94;50.58
40982;BME280;26708;50.304;19.028;2023-02-02T16:55:38;98273.38;;;4.59;51.08
40982;BME280;26708;50.304;19.028;2023-02-02T16:57:51;98260.13;;;4.41;50.70
40982;BME280;26708;50.304;19.028;2023-02-02T17:00:00;98186.97;;;4.04;50.80
40982;BME280;26708;50.304;19.028;2023-02-02T17:02:20;98070.13;;;3.30;49.99
40982;BME280;26708;50.304;19.028;2023-02-02T17:04:33;98315.63;;;4.57;49.68
40982;BME280;26708;50.304;19.028;2023-02-02T17:06:40;98133.38;;;3.48;49.88
40982;BME280;26708;50.304;19.028;2023-02-02T17:08:44;98109.16;;;3.43;49.74
40982;BME280;26708;50.304;19.028;2023-02-02T17:11:00;98206.59;;;3.92;49.90
40982;BME280;26708;50.304;19.028;2023-02-02T17:13:38;98323.31;;;4.51;49.68
40982;BME280;26708;50.304;19.028;2023-02-02T17:15:51;98240.97;;;3.83;49.51
40982;BME280;26708;50.304;19.028;2023-02-02T17:17:56;98276.88;;;4.12;49.53
40982;BME280;26708;50.304;19.028;2023-02-02T17:23:31;98360.13;;;4.35;50.20
40982;BME280;26708;50.304;19.028;2023-02-02T17:25:50;98350.63;;;4.34;49.82
40982;BME280;26708;50.304;19.028;2023-02-02T17:28:21;98354.06;;;4.33;50.18
40982;BME280;26708;50.304;19.028;2023-02-02T17:31:10;98090.47;;;2.67;49.82
40982;BME280;26708;50.304;19.028;2023-02-02T17:40:59;98049.25;;;2.32;49.32
40982;BME280;26708;50.304;19.028;2023-02-02T17:43:47;98178.22;;;3.06;49.75
40982;BME280;26708;50.304;19.028;2023-02-02T17:45:55;98328.16;;;3.87;49.94
40982;BME280;26708;50.304;19.028;2023-02-02T17:48:01;98250.44;;;3.38;50.47
40982;BME280;26708;50.304;19.028;2023-02-02T17:50:11;98386.38;;;4.07;50.50
40982;BME280;26708;50.304;19.028;2023-02-02T17:52:39;98403.56;;;4.05;50.60
40982;BME280;26708;50.304;19.028;2023-02-02T17:54:58;98090.41;;;2.26;50.84
40982;BME280;26708;50.304;19.028;2023-02-02T17:57:21;98408.66;;;3.99;50.74
40982;BME280;26708;50.304;19.028;2023-02-02T17:59:25;98333.47;;;3.52;50.83
40982;BME280;26708;50.304;19.028;2023-02-02T18:01:31;98225.25;;;2.90;50.39
40982;BME280;26708;50.304;19.028;2023-02-02T18:06:10;98273.81;;;3.04;50.56
40982;BME280;26708;50.304;19.028;2023-02-02T18:08:17;98421.50;;;3.95;50.26
